Du har inga inställningar för hoppväder.nu

Hoppväder.nu

Senast uppdaterat 09:28

UTC-tid

2019-02-18 kl. 08:28


Sol och måne

Solen går upp 7:29 och går ner 16:39 (beräknade cirkatider)
Nästa fullmåne blir imorgon!

METAR

ESNN (Sundsvall)
(8 minuter sedan)
ESNN 180820Z 14006KT CAVOK M00/M01 Q1006 RWY 16 ICE 0-10 PCT FCT 0.70=



ESNK (Kramfors)
(8 minuter sedan)
ESNK 180820Z 17008KT CAVOK 00/M02 Q1005=



ESNO (Örnsköldsvik)
(8 minuter sedan)
ESNO 180820Z 20008KT 9999 SCT007 BKN031 00/M01 Q1005=



ESNY (Söderhamn)
ESNY NIL=



ESNZ (Östersund)
(8 minuter sedan)
ESNZ 180820Z 19010KT CAVOK 03/M01 Q1001=



TAF

ESNN (Sundsvall)
(-2 minuter sedan)
ESNN 180830Z 1809/1818 16010KT 9999 FEW030=



ESNK (Kramfors)
(178 minuter sedan)
ESNK 180530Z 1806/1810 16005KT CAVOK=



ESNO (Örnsköldsvik)
(178 minuter sedan)
ESNO 180530Z 1806/1810 17012KT 9999 OVC010 PROB40 1806/1808 BKN008 PROB40 1808/1810 BKN020=



ESNY (Söderhamn)
ESNY



ESNZ (Östersund)
(-2 minuter sedan)
ESNZ 180830Z 1809/1818 18014KT CAVOK=





Kodnycklar till TAF och METAR






LHP

(Sundsvall är område D1a i Sydöstra delen)

ÖVERSIKT FÖR OMRÅDE C UTFÄRDAD 180455
GÄLLANDE DEN 18 FEBRUARI 2019 MELLAN 05 OCH 13 UTC


Väderöversikt

En varmfront rör sig norrut över norra Norrland följt av en kallfront som rör sig österut över Norrland Norrbottensfjällen: tidvis stratus och snö/snöbyar Frisk sydostlig vind, vridande mot sydväst Västerbottensfjällen: lokalt stratus, lokala snöbyar, frisk sydsydvästlig vind Södra Norrlandsfjällen: lokalt stratus eller dimma, sydsydvästlig vind Dalafjällen: utbredda stratus med dis/dimma, lokalt regn, sydvästlig vind

Sikt under 5 kilometer eller molnbas under 1000 fot
05-11UTC: I hela området
11-13UTC: Hela området utom Mellersta delen


Måttlig eller svår isbildning
05-07UTC: Hela området utom Sydvästra delen
07-13UTC: Område Norra delen och Mellersta delen


Måttlig eller svår turbulens
Väntas inte förekomma under perioden



PROGNOS FÖR OMRÅDE C DEN SYDÖSTRA DELEN UTFÄRDAD 180455
GÄLLANDE DEN 18 FEBRUARI 2019 MELLAN 05 OCH 13 UTC

Måttlig eller svår turbulens
05-13UTC: I hela området: Väntas inte förekomma under perioden

Måttlig eller svår isbildning
05-07UTC: Område D1c: måttlig isbildning 500ft - > FL125

05-13UTC: Område D1b,D1a,D2a,D2b: Väntas inte förekomma under perioden

07-13UTC: Område D1c: Väntas inte förekomma under perioden


Sikt/Väder/Moln
05-09UTC: Område D1a: Sikt >8km. Molnbas 500ft - >2000ft.
Område D1b,D1c: Sikt >8km. Molnbas >2000ft, lokalt 500ft - 1000ft.

05-13UTC: Område D2a: Sikt >8km. Molnbas 500ft - >2000ft.
Område D2b: Sikt >8km. Molnbas >2000ft, lokalt 500ft - 1000ft.

09-13UTC: Område D1b,D1c: Sikt >8km. Molnbas 500ft - >2000ft.
Område D1a: Sikt >8km. Molnbas >2000ft.


Molnöversida
05-13UTC: I hela området: Molnöversida > FL125.

CB/TCU Moln
05-13UTC: I hela området: Väntas inte förekomma under perioden

Nollgradersisoterm
05-13UTC: Noll grader FL050 - FL070, Minusgrader 3000ft - 4500ft.

Vind vid marken
05-07UTC: Område D2b: S-SV/1-15 knop, byar upp till 30 knop.
Område D1b: S-SV/6-24 knop, byar upp till 30 knop.
Område D1a: S-SV/4-25 knop, byar upp till 31 knop.
Område D2a: S-SV/0-14 knop, byar upp till 30 knop.

05-09UTC: Område D1c: S-SV/15-24 knop, byar upp till 30 knop.

07-09UTC: Område D1b: S-SV/5-24 knop, byar upp till 30 knop.
Område D1a: S-SV/3-25 knop, byar upp till 33 knop.
Område D2a: SV/0-15 knop, byar upp till 32 knop.
Område D2b: S-SV/1-14 knop, byar upp till 32 knop.

09-11UTC: Område D2a: SV/0-15 knop, byar upp till 34 knop.
Område D1b: S-SV/7-23 knop, byar upp till 29 knop.
Område D2b: SV/3-13 knop, byar upp till 33 knop.
Område D1c: S-SV/13-24 knop, byar upp till 31 knop.
Område D1a: S-SV/3-23 knop, byar upp till 30 knop.

11-13UTC: Område D2b: SV/5-14 knop, byar upp till 33 knop.
Område D1a: S-SV/2-24 knop, byar upp till 30 knop.
Område D1b: S-SV/6-24 knop, byar upp till 30 knop.
Område D2a: SV/2-14 knop, byar upp till 32 knop.
Område D1c: S-SV/13-25 knop, byar upp till 31 knop.


Genomsnittlig vind och temperatur för området
2000ft:
05-09UTC: 240/34kt +1.
09-11UTC: 230/34kt +1.
11-13UTC: 240/35kt +1.

FL50:
05-07UTC: 260/35kt +0.
07-09UTC: 260/34kt +2.
09-11UTC: 250/33kt +3.
11-13UTC: 250/36kt +2.

FL100:
05-07UTC: 260/36kt -7.
07-09UTC: 260/33kt -7.
09-11UTC: 250/35kt -7.
11-13UTC: 250/41kt -7.

Lägsta QNH
1000 hPa.

OBS! endast utbredd måttlig eller svår isbildning och turbulens prognostiseras i LLF.
Avsaknad av isbildning och turbulens i prognosen utesluter inte förekomst av lätt isbildning och turbulens.
För indikation på lätt isbildning, var vänlig kontrollera om prognosen för molntopp ligger högre än nollgradersisotermen.
Förekomst av TCU eller CB medför alltid en risk för måttlig eller svår isbildning och turbulens även om det inte framgår explicit av prognosen.





Spotting

Hur fungerar spotthjälpen och Vindkartan?

Markvind är ca 0 m/s.
Vind på 600 m ca 17 m/s.
Vind på 1500 m ca 17 m/s.
Vind på 3000 m ca 17 m/s.
Feppen flyger ca 19 m/s över marken på finalen.
Du driver ca 764 m bakåt i frifall. (1019 m)
Lämplig spot är 25 sekunder eller 476 m efter gropen.
(38 s eller 723 m)
För små grupper eller ensamhoppare bör man vänta 8-11 sekunder mellan grupperna.
För större grupper bör man vänta 16-19 sekunder mellan grupperna.


Vindkartan

Senast uppdaterad 09:28




All data kommer från LFV.se